createdAt,value
2022-08-04T00:01:34.627Z,19.10
2022-08-04T00:03:18.017Z,19.12
2022-08-04T00:04:56.640Z,19.05
2022-08-04T00:06:46.935Z,18.95
2022-08-04T00:08:27.540Z,18.88
2022-08-04T00:10:04.106Z,18.84
2022-08-04T00:11:40.969Z,18.77
2022-08-04T00:13:14.738Z,18.74
2022-08-04T00:14:51.139Z,18.70
2022-08-04T00:16:25.805Z,18.64
2022-08-04T00:18:09.922Z,18.62
2022-08-04T00:19:45.991Z,18.50
2022-08-04T00:21:22.436Z,18.49
2022-08-04T00:22:55.813Z,18.51
2022-08-04T00:24:31.987Z,18.56
2022-08-04T00:26:06.975Z,18.58
2022-08-04T00:27:40.688Z,18.64
2022-08-04T00:29:14.247Z,18.66
2022-08-04T00:30:47.740Z,18.69
2022-08-04T00:32:33.979Z,18.70
2022-08-04T00:34:08.919Z,18.69
2022-08-04T00:35:42.377Z,18.68
2022-08-04T00:37:16.804Z,18.63
2022-08-04T00:38:50.975Z,18.63
2022-08-04T00:40:30.476Z,18.62
2022-08-04T00:42:49.466Z,18.63
2022-08-04T00:44:41.644Z,18.59
2022-08-04T00:46:47.992Z,18.60
2022-08-04T00:48:35.169Z,18.61
2022-08-04T00:50:13.070Z,18.64
2022-08-04T00:52:32.857Z,18.62
2022-08-04T00:53:56.382Z,18.61
2022-08-04T00:55:43.335Z,18.62
2022-08-04T00:57:34.537Z,18.61
2022-08-04T00:59:20.117Z,18.54
2022-08-04T01:01:00.499Z,18.51
2022-08-04T01:02:38.918Z,18.43
2022-08-04T01:04:22.033Z,18.44
2022-08-04T01:06:07.639Z,18.34
2022-08-04T01:08:10.976Z,18.35
2022-08-04T01:09:58.400Z,18.31
2022-08-04T01:11:57.392Z,18.22
2022-08-04T01:13:48.854Z,18.09
2022-08-04T01:16:00.100Z,18.11
2022-08-04T01:17:38.889Z,18.13
2022-08-04T01:19:35.744Z,18.10
2022-08-04T01:21:42.747Z,18.08
2022-08-04T01:23:51.922Z,18.09
2022-08-04T01:25:39.279Z,18.08
2022-08-04T01:27:27.477Z,18.14
2022-08-04T01:29:11.076Z,18.19
2022-08-04T01:30:50.950Z,18.21
2022-08-04T01:32:33.149Z,18.24
2022-08-04T01:34:10.233Z,18.26
2022-08-04T01:35:48.963Z,18.24
2022-08-04T01:37:36.431Z,18.20
2022-08-04T01:39:24.799Z,18.17
2022-08-04T01:41:03.825Z,18.14
2022-08-04T01:42:38.916Z,18.14
2022-08-04T01:44:15.901Z,18.13
2022-08-04T01:45:52.233Z,18.15
2022-08-04T01:47:29.998Z,18.15
2022-08-04T01:49:04.851Z,18.14
2022-08-04T01:50:38.553Z,18.12
2022-08-04T01:52:12.366Z,18.07
2022-08-04T01:53:46.030Z,18.07
2022-08-04T01:55:19.624Z,18.01
2022-08-04T01:56:54.751Z,18.00
2022-08-04T01:58:30.946Z,17.93
2022-08-04T02:00:07.004Z,17.75
2022-08-04T02:01:39.328Z,17.66
2022-08-04T02:03:14.244Z,17.62
2022-08-04T02:04:47.525Z,17.63
2022-08-04T02:06:32.819Z,17.64
2022-08-04T02:08:20.154Z,17.69
2022-08-04T02:10:05.528Z,17.71
2022-08-04T02:11:42.309Z,17.74
2022-08-04T02:13:24.672Z,17.81
2022-08-04T02:15:04.473Z,17.77
2022-08-04T02:16:52.725Z,17.73
2022-08-04T02:18:32.000Z,17.70
2022-08-04T02:20:08.237Z,17.70
2022-08-04T02:21:43.113Z,17.70
2022-08-04T02:25:19.806Z,17.69
2022-08-04T02:26:57.815Z,17.65
2022-08-04T02:28:36.632Z,17.62
2022-08-04T02:30:09.811Z,17.65
2022-08-04T02:31:50.198Z,17.67
2022-08-04T02:33:30.571Z,17.68
2022-08-04T02:35:08.296Z,17.69
2022-08-04T02:36:43.348Z,17.68
2022-08-04T02:38:25.519Z,17.64
2022-08-04T02:40:02.742Z,17.65
2022-08-04T02:41:38.590Z,17.60
2022-08-04T02:43:12.126Z,17.56
2022-08-04T02:44:51.356Z,17.57
2022-08-04T02:46:25.964Z,17.55
2022-08-04T02:48:29.062Z,17.57
2022-08-04T02:49:58.864Z,17.54
2022-08-04T02:51:35.505Z,17.49
2022-08-04T02:53:13.224Z,17.45
2022-08-04T02:54:48.869Z,17.43
2022-08-04T02:56:23.593Z,17.44
2022-08-04T02:58:00.409Z,17.48
2022-08-04T02:59:53.175Z,17.54
2022-08-04T03:01:27.217Z,17.56
2022-08-04T03:03:16.267Z,17.51
2022-08-04T03:04:56.584Z,17.48
2022-08-04T03:06:55.157Z,17.43
2022-08-04T03:09:01.725Z,17.36
2022-08-04T03:11:06.844Z,17.33
2022-08-04T03:13:23.815Z,17.30
2022-08-04T03:15:35.039Z,17.31
2022-08-04T03:17:52.905Z,17.33
2022-08-04T03:20:11.105Z,17.30
2022-08-04T03:22:25.259Z,17.28
2022-08-04T03:24:40.315Z,17.30
2022-08-04T03:26:39.861Z,17.31
2022-08-04T03:28:52.294Z,17.24
2022-08-04T03:30:39.568Z,17.16
2022-08-04T03:32:57.558Z,17.10
2022-08-04T03:34:45.451Z,17.07
2022-08-04T03:36:49.905Z,17.06
2022-08-04T03:38:57.576Z,17.03
2022-08-04T03:40:39.049Z,17.01
2022-08-04T03:42:40.582Z,17.06
2022-08-04T03:44:36.541Z,17.09
2022-08-04T03:46:31.738Z,17.07
2022-08-04T03:48:19.858Z,17.08
2022-08-04T03:50:36.232Z,17.08
2022-08-04T03:52:48.044Z,17.18
2022-08-04T03:54:40.207Z,17.31
2022-08-04T03:56:49.661Z,17.43
2022-08-04T03:58:54.004Z,17.53
2022-08-04T04:00:32.374Z,17.59
2022-08-04T04:02:41.069Z,17.68
2022-08-04T04:04:36.028Z,17.75
2022-08-04T04:06:34.200Z,17.85
2022-08-04T04:08:46.836Z,17.91
2022-08-04T04:10:40.308Z,17.97
2022-08-04T04:12:31.094Z,18.03
2022-08-04T04:14:19.569Z,18.12
2022-08-04T04:16:08.383Z,18.16
2022-08-04T04:18:04.446Z,18.17
2022-08-04T04:20:03.328Z,18.19
2022-08-04T04:22:13.494Z,18.24
2022-08-04T04:24:07.542Z,18.34
2022-08-04T04:25:54.226Z,18.40
2022-08-04T04:27:38.952Z,18.50
2022-08-04T04:29:35.134Z,18.55
2022-08-04T04:31:36.141Z,18.63
2022-08-04T04:33:32.933Z,18.72
2022-08-04T04:35:18.630Z,18.78
2022-08-04T04:37:05.354Z,18.95
2022-08-04T04:39:14.128Z,19.15
2022-08-04T04:41:01.908Z,19.27
2022-08-04T04:43:02.395Z,19.30
2022-08-04T04:44:57.186Z,19.40
2022-08-04T04:46:40.603Z,19.65
2022-08-04T04:48:25.676Z,20.02
2022-08-04T04:50:06.855Z,20.41
2022-08-04T04:51:45.042Z,20.68
2022-08-04T04:53:25.579Z,20.94
2022-08-04T04:55:05.913Z,21.31
2022-08-04T04:56:45.102Z,21.72
2022-08-04T04:58:21.428Z,22.03
2022-08-04T05:00:03.580Z,22.40
2022-08-04T05:02:03.940Z,22.82
2022-08-04T05:03:57.246Z,23.24
2022-08-04T05:05:43.461Z,23.42
2022-08-04T05:07:53.272Z,23.46
2022-08-04T05:09:38.747Z,23.68
2022-08-04T05:11:45.631Z,23.82
2022-08-04T05:14:34.553Z,24.10
2022-08-04T05:15:31.988Z,24.26
2022-08-04T05:17:13.825Z,24.34
2022-08-04T05:18:56.445Z,24.14
2022-08-04T05:20:35.861Z,24.46
2022-08-04T05:22:14.828Z,24.67
2022-08-04T05:23:55.046Z,24.79
2022-08-04T05:25:36.017Z,24.73
2022-08-04T05:27:16.071Z,24.66
2022-08-04T05:28:54.898Z,25.01
2022-08-04T05:30:30.136Z,25.10
2022-08-04T05:32:08.771Z,25.19
2022-08-04T05:33:47.787Z,25.09
2022-08-04T05:35:47.928Z,25.45
2022-08-04T05:37:30.250Z,26.00
2022-08-04T05:39:07.286Z,26.35
2022-08-04T05:40:41.473Z,26.58
2022-08-04T05:42:15.678Z,26.88
2022-08-04T05:43:51.446Z,27.05
2022-08-04T05:45:25.959Z,27.30
2022-08-04T05:47:00.053Z,27.61
2022-08-04T05:48:34.590Z,27.73
2022-08-04T05:50:09.824Z,28.02
2022-08-04T05:51:46.207Z,28.16
2022-08-04T05:53:21.070Z,28.28
2022-08-04T05:54:55.606Z,28.15
2022-08-04T05:56:29.825Z,28.30
2022-08-04T05:58:03.627Z,28.62
2022-08-04T05:59:39.753Z,28.66
2022-08-04T06:01:14.917Z,28.20
2022-08-04T06:02:51.019Z,27.83
2022-08-04T06:04:26.218Z,27.97
2022-08-04T06:06:00.176Z,28.22
2022-08-04T06:07:35.720Z,28.55
2022-08-04T06:09:29.473Z,28.75
2022-08-04T06:11:06.218Z,28.79
2022-08-04T06:12:45.305Z,29.01
2022-08-04T06:14:21.628Z,29.23
2022-08-04T06:15:59.347Z,29.38
2022-08-04T06:19:40.148Z,29.72
2022-08-04T06:20:02.665Z,29.93
2022-08-04T06:21:28.586Z,30.26
2022-08-04T06:23:05.867Z,30.58
2022-08-04T06:24:41.869Z,30.72
2022-08-04T06:26:19.855Z,31.02
2022-08-04T06:27:54.004Z,31.03
2022-08-04T06:29:34.632Z,31.15
2022-08-04T06:32:27.885Z,31.17
2022-08-04T06:33:13.942Z,31.29
2022-08-04T06:34:48.190Z,31.57
2022-08-04T06:36:21.626Z,31.84
2022-08-04T06:38:00.747Z,31.82
2022-08-04T06:39:37.951Z,31.74
2022-08-04T06:41:12.429Z,31.21
2022-08-04T06:42:46.925Z,30.53
2022-08-04T06:44:26.000Z,30.43
2022-08-04T06:46:02.967Z,30.48
2022-08-04T06:47:38.521Z,30.85
2022-08-04T06:49:12.695Z,31.22
2022-08-04T06:51:25.534Z,31.38
2022-08-04T06:52:46.072Z,31.54
2022-08-04T06:54:19.643Z,31.26
2022-08-04T06:55:55.961Z,31.05
2022-08-04T06:57:31.569Z,31.02
2022-08-04T06:59:08.143Z,31.35
2022-08-04T07:00:43.417Z,31.52
2022-08-04T07:02:18.530Z,31.09
2022-08-04T07:03:52.902Z,31.28
2022-08-04T07:05:26.793Z,31.47
2022-08-04T07:07:00.766Z,31.75
2022-08-04T07:08:35.990Z,32.20
2022-08-04T07:10:10.378Z,32.61
2022-08-04T07:11:47.284Z,32.73
2022-08-04T07:13:22.372Z,33.15
2022-08-04T07:14:56.114Z,33.09
2022-08-04T07:16:30.842Z,33.08
2022-08-04T07:18:05.294Z,33.15
2022-08-04T07:19:38.731Z,33.31
2022-08-04T07:21:12.968Z,33.62
2022-08-04T07:22:48.400Z,33.45
2022-08-04T07:24:21.879Z,33.67
2022-08-04T07:26:11.012Z,33.91
2022-08-04T07:27:49.349Z,34.12
2022-08-04T07:29:24.227Z,34.39
2022-08-04T07:30:59.600Z,34.38
2022-08-04T07:32:34.255Z,34.34
2022-08-04T07:34:20.646Z,34.13
2022-08-04T07:36:05.546Z,34.34
2022-08-04T07:37:43.089Z,34.62
2022-08-04T07:39:27.325Z,34.75
2022-08-04T07:41:03.919Z,34.11
2022-08-04T07:42:39.805Z,34.20
2022-08-04T07:44:16.065Z,34.46
2022-08-04T07:45:49.512Z,34.76
2022-08-04T07:47:25.486Z,34.92
2022-08-04T07:48:59.492Z,35.20
2022-08-04T07:50:33.784Z,35.38
2022-08-04T07:52:08.722Z,35.58
2022-08-04T07:53:54.822Z,35.72
2022-08-04T07:55:30.268Z,35.80
2022-08-04T07:57:05.774Z,35.97
2022-08-04T07:58:39.105Z,35.96
2022-08-04T08:00:15.274Z,35.94
2022-08-04T08:01:49.158Z,36.14
2022-08-04T08:03:23.933Z,36.01
2022-08-04T08:04:57.793Z,36.03
2022-08-04T08:06:35.553Z,36.18
2022-08-04T08:08:11.771Z,36.31
2022-08-04T08:09:45.477Z,36.46
2022-08-04T08:11:18.811Z,36.68
2022-08-04T08:12:53.164Z,36.85
2022-08-04T08:14:26.863Z,36.78
2022-08-04T08:16:02.493Z,36.79
2022-08-04T08:17:58.279Z,36.53
2022-08-04T08:19:29.648Z,36.63
2022-08-04T08:21:03.757Z,36.64
2022-08-04T08:22:38.019Z,36.94
2022-08-04T08:24:13.045Z,37.12
2022-08-04T08:25:46.889Z,37.23
2022-08-04T08:27:20.554Z,37.43
2022-08-04T08:28:54.539Z,37.77
2022-08-04T08:30:31.849Z,37.92
2022-08-04T08:32:13.348Z,38.02
2022-08-04T08:33:47.657Z,38.10
2022-08-04T08:35:22.077Z,38.04
2022-08-04T08:37:00.726Z,38.17
2022-08-04T08:38:42.169Z,38.20
2022-08-04T08:40:39.196Z,38.20
2022-08-04T08:42:48.420Z,38.38
2022-08-04T08:44:58.246Z,38.52
2022-08-04T08:46:50.274Z,38.38
2022-08-04T08:48:42.090Z,38.48
2022-08-04T08:50:38.196Z,37.91
2022-08-04T08:53:00.627Z,37.54
2022-08-04T08:54:48.522Z,37.04
2022-08-04T08:56:33.373Z,37.23
2022-08-04T08:58:37.130Z,37.20
2022-08-04T09:00:16.999Z,37.46
2022-08-04T09:02:18.380Z,37.64
2022-08-04T09:04:41.733Z,37.47
2022-08-04T09:06:38.326Z,36.83
2022-08-04T09:08:27.549Z,36.90
2022-08-04T09:10:12.136Z,37.08
2022-08-04T09:11:51.359Z,36.94
2022-08-04T09:13:35.718Z,37.22
2022-08-04T09:15:15.027Z,37.52
2022-08-04T09:16:55.115Z,37.08
2022-08-04T09:18:37.937Z,36.95
2022-08-04T09:20:18.157Z,37.40
2022-08-04T09:22:00.286Z,37.65
2022-08-04T09:23:42.266Z,37.62
2022-08-04T09:25:25.385Z,37.81
2022-08-04T09:27:01.993Z,37.61
2022-08-04T09:28:55.209Z,37.55
2022-08-04T09:30:34.133Z,37.43
2022-08-04T09:32:18.186Z,37.29
2022-08-04T09:34:00.941Z,37.15
2022-08-04T09:35:47.158Z,37.09
2022-08-04T09:37:33.215Z,37.19
2022-08-04T09:39:27.818Z,37.22
2022-08-04T09:41:20.891Z,37.62
2022-08-04T09:43:14.849Z,37.99
2022-08-04T09:45:05.626Z,37.83
2022-08-04T09:46:46.180Z,37.18
2022-08-04T09:48:29.758Z,36.26
2022-08-04T09:50:13.493Z,36.31
2022-08-04T09:52:00.169Z,36.18
2022-08-04T09:53:51.339Z,36.30
2022-08-04T09:55:35.808Z,35.98
2022-08-04T09:57:38.439Z,35.52
2022-08-04T09:59:21.370Z,34.94
2022-08-04T10:01:03.091Z,34.61
2022-08-04T10:02:40.524Z,34.57
2022-08-04T10:04:18.003Z,34.58
2022-08-04T10:06:08.257Z,34.71
2022-08-04T10:08:15.902Z,34.76
2022-08-04T10:10:11.648Z,34.78
2022-08-04T10:12:03.077Z,34.69
2022-08-04T10:13:49.993Z,34.66
2022-08-04T10:15:30.389Z,34.72
2022-08-04T10:17:27.527Z,34.82
2022-08-04T10:19:10.717Z,34.66
2022-08-04T10:20:57.388Z,34.57
2022-08-04T10:22:55.400Z,34.58
2022-08-04T10:24:51.119Z,34.67
2022-08-04T10:26:34.583Z,34.33
2022-08-04T10:28:13.423Z,34.04
2022-08-04T10:29:48.823Z,34.00
2022-08-04T10:31:28.001Z,34.04
2022-08-04T10:33:08.967Z,34.06
2022-08-04T10:34:50.034Z,34.07
2022-08-04T10:36:25.956Z,34.18
2022-08-04T10:38:06.421Z,34.17
2022-08-04T10:40:08.608Z,33.99
2022-08-04T10:41:54.327Z,34.03
2022-08-04T10:43:42.718Z,34.11
2022-08-04T10:45:19.607Z,33.99
2022-08-04T10:46:57.029Z,34.23
2022-08-04T10:48:42.263Z,34.37
2022-08-04T10:50:25.016Z,34.45
2022-08-04T10:52:06.837Z,34.58
2022-08-04T10:53:41.682Z,34.73
2022-08-04T10:55:20.113Z,34.78
2022-08-04T10:57:01.616Z,34.74
2022-08-04T10:58:47.366Z,34.77
2022-08-04T11:00:26.087Z,34.76
2022-08-04T11:02:11.823Z,34.83
2022-08-04T11:03:53.253Z,34.76
2022-08-04T11:05:34.462Z,34.67
2022-08-04T11:07:19.364Z,34.42
2022-08-04T11:08:56.051Z,34.20
2022-08-04T11:10:34.341Z,34.08
2022-08-04T11:12:16.274Z,33.99
2022-08-04T11:14:00.516Z,33.81
2022-08-04T11:15:39.239Z,33.88
2022-08-04T11:17:20.330Z,33.96
2022-08-04T11:19:08.119Z,34.05
2022-08-04T11:20:47.997Z,34.10
2022-08-04T11:22:27.230Z,34.12
2022-08-04T11:24:05.001Z,34.12
2022-08-04T11:25:52.271Z,34.03
2022-08-04T11:27:37.269Z,34.16
2022-08-04T11:29:18.412Z,34.10
2022-08-04T11:30:57.408Z,34.14
2022-08-04T11:32:37.215Z,34.28
2022-08-04T11:34:21.819Z,34.46
2022-08-04T11:36:04.343Z,34.58
2022-08-04T11:37:46.856Z,34.61
2022-08-04T11:39:29.879Z,34.53
2022-08-04T11:41:12.236Z,34.40
2022-08-04T11:42:57.992Z,34.44
2022-08-04T11:44:36.366Z,34.45
2022-08-04T11:46:15.310Z,34.48
2022-08-04T11:47:55.338Z,34.26
2022-08-04T11:49:56.519Z,34.32
2022-08-04T11:51:30.566Z,34.43
2022-08-04T11:53:04.940Z,34.43
2022-08-04T11:54:39.785Z,34.54
2022-08-04T11:56:35.960Z,34.57
2022-08-04T11:58:12.143Z,34.40
2022-08-04T11:59:49.131Z,34.39
2022-08-04T12:01:30.107Z,34.54
2022-08-04T12:03:16.794Z,34.57
2022-08-04T12:04:58.458Z,34.60
2022-08-04T12:06:38.441Z,34.70
2022-08-04T12:08:41.013Z,34.69
2022-08-04T12:10:41.000Z,34.67
2022-08-04T12:12:26.055Z,34.54
2022-08-04T12:14:11.836Z,34.35
2022-08-04T12:15:57.512Z,34.28
2022-08-04T12:17:52.491Z,34.30
2022-08-04T12:19:47.173Z,34.32
2022-08-04T12:21:32.968Z,34.11
2022-08-04T12:23:15.033Z,34.15
2022-08-04T12:24:58.277Z,34.28
2022-08-04T12:26:38.472Z,34.47
2022-08-04T12:28:17.848Z,34.62
2022-08-04T12:30:54.201Z,34.55
2022-08-04T12:31:54.030Z,34.63
2022-08-04T12:34:03.283Z,34.61
2022-08-04T12:35:35.428Z,34.45
2022-08-04T12:37:22.091Z,34.38
2022-08-04T12:39:03.111Z,34.45
2022-08-04T12:40:43.404Z,34.58
2022-08-04T12:42:24.284Z,34.63
2022-08-04T12:44:07.588Z,34.53
2022-08-04T12:46:06.080Z,34.45
2022-08-04T12:47:41.961Z,34.50
2022-08-04T12:49:17.279Z,34.37
2022-08-04T12:50:53.986Z,34.42
2022-08-04T12:52:45.376Z,34.40
2022-08-04T12:54:29.013Z,34.40
2022-08-04T12:56:04.103Z,34.30
2022-08-04T12:57:38.204Z,34.16
2022-08-04T12:59:14.203Z,34.21
2022-08-04T13:00:54.985Z,34.18
2022-08-04T13:02:35.144Z,34.25
2022-08-04T13:04:14.467Z,34.12
2022-08-04T13:05:50.130Z,34.13
2022-08-04T13:07:26.363Z,34.03
2022-08-04T13:09:06.677Z,34.01
2022-08-04T13:10:46.325Z,34.03
2022-08-04T13:12:26.008Z,33.97
2022-08-04T13:14:26.119Z,34.04
2022-08-04T13:16:02.625Z,34.16
2022-08-04T13:17:53.367Z,34.17
2022-08-04T13:19:41.599Z,34.18
2022-08-04T13:21:21.386Z,34.16
2022-08-04T13:23:02.066Z,33.94
2022-08-04T13:24:56.858Z,33.99
2022-08-04T13:26:44.055Z,33.96
2022-08-04T13:28:29.270Z,33.95
2022-08-04T13:30:04.050Z,34.08
2022-08-04T13:31:38.773Z,34.03
2022-08-04T13:33:14.571Z,34.01
2022-08-04T13:34:52.723Z,33.98
2022-08-04T13:36:27.937Z,33.96
2022-08-04T13:38:03.059Z,33.85
2022-08-04T13:39:37.435Z,33.85
2022-08-04T13:41:11.218Z,33.83
2022-08-04T13:42:48.818Z,33.69
2022-08-04T13:44:25.512Z,33.75
2022-08-04T13:46:05.076Z,33.72
2022-08-04T13:47:41.476Z,33.77
2022-08-04T13:51:13.363Z,33.58
2022-08-04T13:52:48.156Z,33.46
2022-08-04T13:54:21.851Z,33.47
2022-08-04T13:56:00.702Z,33.48
2022-08-04T13:57:44.369Z,33.52
2022-08-04T13:59:20.606Z,33.57
2022-08-04T14:01:00.184Z,33.58
2022-08-04T14:02:39.087Z,33.71
2022-08-04T14:04:21.822Z,33.82
2022-08-04T14:06:16.032Z,33.78
2022-08-04T14:07:54.693Z,33.74
2022-08-04T14:09:34.793Z,33.70
2022-08-04T14:11:09.300Z,33.72
2022-08-04T14:13:05.816Z,33.65
2022-08-04T14:14:47.017Z,33.66
2022-08-04T14:16:22.933Z,33.67
2022-08-04T14:17:56.383Z,33.64
2022-08-04T14:19:48.769Z,33.65
2022-08-04T14:21:22.068Z,33.62
2022-08-04T14:23:02.752Z,33.65
2022-08-04T14:24:36.192Z,33.65
2022-08-04T14:26:31.401Z,33.66
2022-08-04T14:28:06.792Z,33.75
2022-08-04T14:29:41.971Z,33.72
2022-08-04T14:31:17.673Z,33.68
2022-08-04T14:34:04.304Z,33.68
2022-08-04T14:34:58.105Z,33.72
2022-08-04T14:37:13.231Z,33.70
2022-08-04T14:38:58.602Z,33.81
2022-08-04T14:40:35.886Z,34.12
2022-08-04T14:42:09.910Z,34.56
2022-08-04T14:43:48.170Z,34.73
2022-08-04T14:45:32.515Z,34.80
2022-08-04T14:47:06.191Z,34.78
2022-08-04T14:49:16.586Z,34.52
2022-08-04T14:50:52.651Z,34.35
2022-08-04T14:52:27.091Z,34.21
2022-08-04T14:54:03.860Z,34.13
2022-08-04T14:55:41.051Z,33.98
2022-08-04T14:57:18.243Z,33.91
2022-08-04T14:59:01.044Z,33.67
2022-08-04T15:00:36.175Z,33.63
2022-08-04T15:02:10.648Z,33.54
2022-08-04T15:03:50.160Z,33.54
2022-08-04T15:06:02.324Z,33.54
2022-08-04T15:07:21.275Z,33.48
2022-08-04T15:08:56.584Z,33.43
2022-08-04T15:10:30.617Z,33.42
2022-08-04T15:12:05.576Z,33.42
2022-08-04T15:13:39.123Z,33.40
2022-08-04T15:15:35.440Z,33.38
2022-08-04T15:17:12.179Z,33.31
2022-08-04T15:19:01.026Z,33.28
2022-08-04T15:20:34.611Z,33.22
2022-08-04T15:22:17.176Z,33.15
2022-08-04T15:23:52.601Z,33.13
2022-08-04T15:25:26.863Z,33.14
2022-08-04T15:27:04.126Z,33.14
2022-08-04T15:28:41.112Z,33.13
2022-08-04T15:30:18.517Z,33.10
2022-08-04T15:32:06.046Z,33.07
2022-08-04T15:33:42.746Z,33.09
2022-08-04T15:35:26.591Z,33.10
2022-08-04T15:37:06.937Z,33.03
2022-08-04T15:38:46.300Z,32.99
2022-08-04T15:40:33.630Z,32.99
2022-08-04T15:42:20.917Z,32.98
2022-08-04T15:44:19.167Z,33.00
2022-08-04T15:46:41.786Z,32.88
2022-08-04T15:48:35.484Z,32.90
2022-08-04T15:50:11.502Z,32.80
2022-08-04T15:51:45.171Z,32.77
2022-08-04T15:53:23.059Z,32.78
2022-08-04T15:55:34.726Z,32.79
2022-08-04T15:57:08.397Z,32.83
2022-08-04T15:58:51.555Z,32.81
2022-08-04T16:00:24.863Z,32.77
2022-08-04T16:02:31.551Z,32.80
2022-08-04T16:04:22.469Z,32.81
2022-08-04T16:05:56.057Z,32.78
2022-08-04T16:07:54.702Z,32.71
2022-08-04T16:09:45.103Z,32.67
2022-08-04T16:11:41.953Z,32.67
2022-08-04T16:13:17.064Z,32.66
2022-08-04T16:14:50.561Z,32.64
2022-08-04T16:16:29.287Z,32.73
2022-08-04T16:18:02.730Z,32.74
2022-08-04T16:19:52.117Z,32.68
2022-08-04T16:21:26.990Z,32.61
2022-08-04T16:23:31.714Z,32.54
2022-08-04T16:25:10.749Z,32.56
2022-08-04T16:26:55.100Z,32.56
2022-08-04T16:28:41.881Z,32.45
2022-08-04T16:30:16.876Z,32.42
2022-08-04T16:32:11.098Z,32.39
2022-08-04T16:33:48.403Z,32.34
2022-08-04T16:35:42.218Z,32.32
2022-08-04T16:37:15.993Z,32.32
2022-08-04T16:39:06.923Z,32.28
2022-08-04T16:40:44.518Z,32.27
2022-08-04T16:42:34.392Z,32.20
2022-08-04T16:44:52.300Z,32.17
2022-08-04T16:47:21.867Z,32.07
2022-08-04T16:48:37.515Z,32.03
2022-08-04T16:50:10.222Z,32.01
2022-08-04T16:51:44.483Z,31.97
2022-08-04T16:54:02.930Z,31.95
2022-08-04T16:55:13.565Z,31.88
2022-08-04T16:56:48.210Z,31.87
2022-08-04T16:58:29.869Z,31.85
2022-08-04T17:00:07.458Z,31.84
2022-08-04T17:01:48.088Z,31.82
2022-08-04T17:03:22.252Z,31.77
2022-08-04T17:05:01.011Z,31.74
2022-08-04T17:06:43.146Z,31.62
2022-08-04T17:08:29.764Z,31.56
2022-08-04T17:10:03.743Z,31.59
2022-08-04T17:11:37.560Z,31.53
2022-08-04T17:14:03.066Z,31.47
2022-08-04T17:15:22.082Z,31.34
2022-08-04T17:16:59.853Z,31.31
2022-08-04T17:18:35.301Z,31.24
2022-08-04T17:20:09.628Z,31.18
2022-08-04T17:21:44.193Z,31.12
2022-08-04T17:24:13.197Z,31.06
2022-08-04T17:25:51.474Z,30.98
2022-08-04T17:28:09.789Z,30.90
2022-08-04T17:29:12.611Z,30.85
2022-08-04T17:30:54.040Z,30.75
2022-08-04T17:32:28.072Z,30.69
2022-08-04T17:34:03.980Z,30.59
2022-08-04T17:35:41.524Z,30.56
2022-08-04T17:37:38.889Z,30.48
2022-08-04T17:39:17.893Z,30.39
2022-08-04T17:40:58.217Z,30.31
2022-08-04T17:42:34.455Z,30.25
2022-08-04T17:44:08.254Z,30.17
2022-08-04T17:45:53.559Z,30.11
2022-08-04T17:47:30.047Z,30.03
2022-08-04T17:49:20.497Z,29.95
2022-08-04T17:50:53.117Z,29.89
2022-08-04T17:52:44.653Z,29.76
2022-08-04T17:54:29.778Z,29.58
2022-08-04T17:56:36.311Z,29.45
2022-08-04T17:58:27.063Z,29.30
2022-08-04T18:00:00.813Z,29.23
2022-08-04T18:01:52.249Z,29.14
2022-08-04T18:03:29.167Z,29.05
2022-08-04T18:05:05.549Z,28.99
2022-08-04T18:06:51.448Z,28.85
2022-08-04T18:08:38.851Z,28.79
2022-08-04T18:10:30.654Z,28.74
2022-08-04T18:12:14.887Z,28.68
2022-08-04T18:13:54.646Z,28.64
2022-08-04T18:18:20.800Z,28.52
2022-08-04T18:19:31.306Z,28.46
2022-08-04T18:21:05.678Z,28.32
2022-08-04T18:22:42.004Z,28.37
2022-08-04T18:24:16.565Z,28.26
2022-08-04T18:25:51.099Z,28.24
2022-08-04T18:27:29.776Z,28.11
2022-08-04T18:29:04.918Z,28.10
2022-08-04T18:30:54.894Z,27.91
2022-08-04T18:32:33.406Z,27.89
2022-08-04T18:34:13.674Z,27.84
2022-08-04T18:36:32.615Z,27.80
2022-08-04T18:38:06.214Z,27.71
2022-08-04T18:40:17.409Z,27.68
2022-08-04T18:42:01.187Z,27.57
2022-08-04T18:43:40.512Z,27.24
2022-08-04T18:45:15.389Z,26.90
2022-08-04T18:46:50.789Z,26.74
2022-08-04T18:48:36.325Z,26.63
2022-08-04T18:50:59.983Z,26.66
2022-08-04T18:52:08.071Z,26.62
2022-08-04T18:53:45.011Z,26.59
2022-08-04T18:55:56.093Z,26.58
2022-08-04T18:57:32.447Z,26.53
2022-08-04T18:59:23.169Z,26.49
2022-08-04T19:00:56.121Z,26.44
2022-08-04T19:02:34.408Z,26.36
2022-08-04T19:04:32.323Z,26.31
2022-08-04T19:06:03.908Z,26.27
2022-08-04T19:08:11.586Z,26.25
2022-08-04T19:09:51.195Z,26.09
2022-08-04T19:11:54.688Z,26.04
2022-08-04T19:13:25.615Z,25.96
2022-08-04T19:15:08.660Z,26.06
2022-08-04T19:16:47.351Z,26.07
2022-08-04T19:18:19.986Z,26.02
2022-08-04T19:19:54.012Z,25.97
2022-08-04T19:22:00.801Z,25.85
2022-08-04T19:24:29.285Z,25.74
2022-08-04T19:25:59.179Z,25.64
2022-08-04T19:27:13.179Z,25.61
2022-08-04T19:28:50.754Z,25.64
2022-08-04T19:30:24.466Z,25.67
2022-08-04T19:31:58.161Z,25.65
2022-08-04T19:33:58.730Z,25.61
2022-08-04T19:35:25.298Z,25.63
2022-08-04T19:37:04.563Z,25.67
2022-08-04T19:38:38.903Z,25.68
2022-08-04T19:40:13.173Z,25.64
2022-08-04T19:42:04.607Z,25.62
2022-08-04T19:43:38.769Z,25.61
2022-08-04T19:45:17.466Z,25.63
2022-08-04T19:46:51.299Z,25.61
2022-08-04T19:48:30.386Z,25.58
2022-08-04T19:50:10.372Z,25.56
2022-08-04T19:51:46.288Z,25.56
2022-08-04T19:55:37.072Z,25.53
2022-08-04T19:57:25.127Z,25.52
2022-08-04T19:59:05.928Z,25.49
2022-08-04T20:00:51.009Z,25.48
2022-08-04T20:02:25.081Z,25.39
2022-08-04T20:04:10.385Z,25.33
2022-08-04T20:05:53.762Z,25.30
2022-08-04T20:07:30.197Z,25.26
2022-08-04T20:11:00.629Z,25.11
2022-08-04T20:12:34.250Z,25.04
2022-08-04T20:14:15.205Z,24.96
2022-08-04T20:15:55.363Z,24.85
2022-08-04T20:18:08.295Z,24.69
2022-08-04T20:19:25.753Z,24.60
2022-08-04T20:21:00.282Z,24.57
2022-08-04T20:22:52.526Z,24.52
2022-08-04T20:24:37.648Z,24.47
2022-08-04T20:26:15.288Z,24.35
2022-08-04T20:27:51.652Z,24.29
2022-08-04T20:29:40.284Z,24.29
2022-08-04T20:31:18.183Z,24.31
2022-08-04T20:32:54.117Z,24.24
2022-08-04T20:34:27.594Z,24.23
2022-08-04T20:36:05.589Z,24.23
2022-08-04T20:37:57.679Z,24.23
2022-08-04T20:39:35.508Z,24.23
2022-08-04T20:41:09.402Z,24.24
2022-08-04T20:42:45.042Z,24.26
2022-08-04T20:44:24.159Z,24.29
2022-08-04T20:45:59.511Z,24.28
2022-08-04T20:47:35.293Z,24.25
2022-08-04T20:49:09.286Z,24.14
2022-08-04T20:50:45.166Z,24.03
2022-08-04T20:52:20.711Z,23.90
2022-08-04T20:53:54.427Z,23.97
2022-08-04T20:55:29.623Z,23.95
2022-08-04T20:57:03.271Z,23.90
2022-08-04T20:58:37.170Z,23.93
2022-08-04T21:00:13.147Z,23.89
2022-08-04T21:01:49.556Z,23.84
2022-08-04T21:03:38.501Z,23.80
2022-08-04T21:05:19.783Z,23.80
2022-08-04T21:06:53.087Z,23.85
2022-08-04T21:08:27.030Z,23.84
2022-08-04T21:10:00.971Z,23.86
2022-08-04T21:11:37.089Z,23.87
2022-08-04T21:13:10.447Z,23.92
2022-08-04T21:14:44.005Z,23.94
2022-08-04T21:16:55.263Z,23.98
2022-08-04T21:18:17.018Z,23.97
2022-08-04T21:19:50.485Z,23.90
2022-08-04T21:21:23.720Z,23.94
2022-08-04T21:23:08.795Z,23.88
2022-08-04T21:24:42.235Z,23.92
2022-08-04T21:26:25.957Z,23.92
2022-08-04T21:28:04.392Z,23.89
2022-08-04T21:29:38.404Z,23.88
2022-08-04T21:31:22.184Z,23.81
2022-08-04T21:32:55.845Z,23.81
2022-08-04T21:34:38.550Z,23.80
2022-08-04T21:36:14.080Z,23.81
2022-08-04T21:37:58.154Z,23.83
2022-08-04T21:41:28.042Z,23.82
2022-08-04T21:43:02.857Z,23.74
2022-08-04T21:44:36.268Z,23.60
2022-08-04T21:46:11.418Z,23.63
2022-08-04T21:47:49.126Z,23.48
2022-08-04T21:49:22.918Z,23.44
2022-08-04T21:50:55.427Z,23.49
2022-08-04T21:52:30.609Z,23.53
2022-08-04T21:54:05.557Z,23.55
2022-08-04T21:56:05.519Z,23.57
2022-08-04T21:57:32.680Z,23.61
2022-08-04T21:59:14.507Z,23.65
2022-08-04T22:00:52.626Z,23.68
2022-08-04T22:02:26.080Z,23.65
2022-08-04T22:03:59.622Z,23.62
2022-08-04T22:05:33.317Z,23.57
2022-08-04T22:07:06.715Z,23.54
2022-08-04T22:08:41.200Z,23.46
2022-08-04T22:10:32.640Z,23.42
2022-08-04T22:12:07.214Z,23.39
2022-08-04T22:13:52.602Z,23.30
2022-08-04T22:16:04.496Z,23.23
2022-08-04T22:17:35.607Z,23.13
2022-08-04T22:19:10.917Z,23.01